sensor_id;sensor_type;location;lat;lon;timestamp;P1;durP1;ratioP1;P2;durP2;ratioP2
80578;SDS011;69939;52.402;6.608;2023-07-08T00:01:13;78.05;;;75.32;;
80578;SDS011;69939;52.402;6.608;2023-07-08T00:03:44;66.03;;;63.58;;
80578;SDS011;69939;52.402;6.608;2023-07-08T00:06:16;94.75;;;91.50;;
80578;SDS011;69939;52.402;6.608;2023-07-08T00:11:21;64.45;;;62.10;;
80578;SDS011;69939;52.402;6.608;2023-07-08T00:13:51;67.38;;;64.85;;
80578;SDS011;69939;52.402;6.608;2023-07-08T00:16:21;50.13;;;48.40;;
80578;SDS011;69939;52.402;6.608;2023-07-08T00:18:52;38.97;;;37.38;;
80578;SDS011;69939;52.402;6.608;2023-07-08T00:21:22;39.40;;;37.92;;
80578;SDS011;69939;52.402;6.608;2023-07-08T00:23:54;62.45;;;60.15;;
80578;SDS011;69939;52.402;6.608;2023-07-08T00:26:24;34.63;;;33.25;;
80578;SDS011;69939;52.402;6.608;2023-07-08T00:28:57;34.88;;;33.47;;
80578;SDS011;69939;52.402;6.608;2023-07-08T00:31:27;27.20;;;25.88;;
80578;SDS011;69939;52.402;6.608;2023-07-08T00:33:57;25.30;;;23.90;;
80578;SDS011;69939;52.402;6.608;2023-07-08T00:36:28;17.00;;;16.20;;
80578;SDS011;69939;52.402;6.608;2023-07-08T00:39:01;18.58;;;17.50;;
80578;SDS011;69939;52.402;6.608;2023-07-08T00:41:32;15.95;;;15.15;;
80578;SDS011;69939;52.402;6.608;2023-07-08T00:44:07;24.52;;;23.13;;
80578;SDS011;69939;52.402;6.608;2023-07-08T00:46:46;17.23;;;16.42;;
80578;SDS011;69939;52.402;6.608;2023-07-08T00:49:28;18.85;;;17.95;;
80578;SDS011;69939;52.402;6.608;2023-07-08T00:52:15;34.58;;;33.28;;
80578;SDS011;69939;52.402;6.608;2023-07-08T00:54:53;17.55;;;16.50;;
80578;SDS011;69939;52.402;6.608;2023-07-08T00:57:25;18.90;;;18.00;;
80578;SDS011;69939;52.402;6.608;2023-07-08T01:00:02;14.45;;;13.65;;
80578;SDS011;69939;52.402;6.608;2023-07-08T01:02:39;19.77;;;18.55;;
80578;SDS011;69939;52.402;6.608;2023-07-08T01:05:15;15.80;;;14.90;;
80578;SDS011;69939;52.402;6.608;2023-07-08T01:07:55;20.00;;;18.80;;
80578;SDS011;69939;52.402;6.608;2023-07-08T01:10:36;17.42;;;16.52;;
80578;SDS011;69939;52.402;6.608;2023-07-08T01:13:15;17.50;;;16.42;;
80578;SDS011;69939;52.402;6.608;2023-07-08T01:15:46;22.30;;;21.13;;
80578;SDS011;69939;52.402;6.608;2023-07-08T01:18:19;15.40;;;14.60;;
80578;SDS011;69939;52.402;6.608;2023-07-08T01:20:52;15.05;;;14.07;;
80578;SDS011;69939;52.402;6.608;2023-07-08T01:23:25;16.90;;;16.15;;
80578;SDS011;69939;52.402;6.608;2023-07-08T01:25:55;24.00;;;22.95;;
80578;SDS011;69939;52.402;6.608;2023-07-08T01:28:27;20.42;;;19.42;;
80578;SDS011;69939;52.402;6.608;2023-07-08T01:31:00;19.00;;;18.08;;
80578;SDS011;69939;52.402;6.608;2023-07-08T01:33:30;25.40;;;24.38;;
80578;SDS011;69939;52.402;6.608;2023-07-08T01:36:02;19.58;;;18.67;;
80578;SDS011;69939;52.402;6.608;2023-07-08T01:38:35;15.63;;;14.93;;
80578;SDS011;69939;52.402;6.608;2023-07-08T01:41:10;20.80;;;19.52;;
80578;SDS011;69939;52.402;6.608;2023-07-08T01:43:41;21.58;;;20.55;;
80578;SDS011;69939;52.402;6.608;2023-07-08T01:46:11;23.05;;;21.65;;
80578;SDS011;69939;52.402;6.608;2023-07-08T01:48:50;30.70;;;29.35;;
80578;SDS011;69939;52.402;6.608;2023-07-08T01:51:25;31.80;;;30.50;;
80578;SDS011;69939;52.402;6.608;2023-07-08T01:53:58;27.90;;;26.63;;
80578;SDS011;69939;52.402;6.608;2023-07-08T01:56:28;25.35;;;24.15;;
80578;SDS011;69939;52.402;6.608;2023-07-08T01:59:00;30.05;;;28.88;;
80578;SDS011;69939;52.402;6.608;2023-07-08T02:01:30;33.72;;;32.22;;
80578;SDS011;69939;52.402;6.608;2023-07-08T02:03:59;33.38;;;32.03;;
80578;SDS011;69939;52.402;6.608;2023-07-08T02:06:29;40.83;;;39.00;;
80578;SDS011;69939;52.402;6.608;2023-07-08T02:11:32;29.67;;;28.42;;
80578;SDS011;69939;52.402;6.608;2023-07-08T02:16:31;50.25;;;48.38;;
80578;SDS011;69939;52.402;6.608;2023-07-08T02:19:01;47.70;;;45.88;;
80578;SDS011;69939;52.402;6.608;2023-07-08T02:24:03;46.97;;;45.13;;
80578;SDS011;69939;52.402;6.608;2023-07-08T02:26:34;51.22;;;49.25;;
80578;SDS011;69939;52.402;6.608;2023-07-08T02:29:06;90.68;;;87.38;;
80578;SDS011;69939;52.402;6.608;2023-07-08T02:31:37;89.72;;;86.53;;
80578;SDS011;69939;52.402;6.608;2023-07-08T02:34:08;98.05;;;94.20;;
80578;SDS011;69939;52.402;6.608;2023-07-08T02:36:41;123.00;;;118.80;;
80578;SDS011;69939;52.402;6.608;2023-07-08T02:39:13;125.25;;;120.93;;
80578;SDS011;69939;52.402;6.608;2023-07-08T02:41:42;112.40;;;108.53;;
80578;SDS011;69939;52.402;6.608;2023-07-08T02:44:12;133.90;;;129.27;;
80578;SDS011;69939;52.402;6.608;2023-07-08T02:46:41;138.73;;;133.82;;
80578;SDS011;69939;52.402;6.608;2023-07-08T02:49:12;164.38;;;158.73;;
80578;SDS011;69939;52.402;6.608;2023-07-08T02:51:41;160.85;;;155.45;;
80578;SDS011;69939;52.402;6.608;2023-07-08T02:54:14;180.32;;;174.13;;
80578;SDS011;69939;52.402;6.608;2023-07-08T02:56:46;171.32;;;165.43;;
80578;SDS011;69939;52.402;6.608;2023-07-08T02:59:17;210.70;;;203.75;;
80578;SDS011;69939;52.402;6.608;2023-07-08T03:01:48;204.85;;;197.90;;
80578;SDS011;69939;52.402;6.608;2023-07-08T03:04:18;244.05;;;235.73;;
80578;SDS011;69939;52.402;6.608;2023-07-08T03:06:50;231.85;;;224.07;;
80578;SDS011;69939;52.402;6.608;2023-07-08T03:09:23;249.85;;;241.23;;
80578;SDS011;69939;52.402;6.608;2023-07-08T03:11:54;218.60;;;211.00;;
80578;SDS011;69939;52.402;6.608;2023-07-08T03:14:23;302.48;;;292.05;;
80578;SDS011;69939;52.402;6.608;2023-07-08T03:16:53;313.75;;;302.48;;
80578;SDS011;69939;52.402;6.608;2023-07-08T03:19:24;259.92;;;250.73;;
80578;SDS011;69939;52.402;6.608;2023-07-08T03:21:56;270.77;;;261.23;;
80578;SDS011;69939;52.402;6.608;2023-07-08T03:27:02;306.05;;;294.88;;
80578;SDS011;69939;52.402;6.608;2023-07-08T03:29:33;343.75;;;331.23;;
80578;SDS011;69939;52.402;6.608;2023-07-08T03:32:02;338.27;;;326.05;;
80578;SDS011;69939;52.402;6.608;2023-07-08T03:34:33;337.92;;;325.95;;
80578;SDS011;69939;52.402;6.608;2023-07-08T03:37:03;332.08;;;320.10;;
80578;SDS011;69939;52.402;6.608;2023-07-08T03:39:37;346.35;;;333.35;;
80578;SDS011;69939;52.402;6.608;2023-07-08T03:42:06;335.08;;;322.95;;
80578;SDS011;69939;52.402;6.608;2023-07-08T03:44:37;326.77;;;315.00;;
80578;SDS011;69939;52.402;6.608;2023-07-08T03:47:08;317.52;;;306.15;;
80578;SDS011;69939;52.402;6.608;2023-07-08T03:49:39;294.75;;;284.42;;
80578;SDS011;69939;52.402;6.608;2023-07-08T03:52:09;339.75;;;327.50;;
80578;SDS011;69939;52.402;6.608;2023-07-08T03:54:48;324.10;;;312.63;;
80578;SDS011;69939;52.402;6.608;2023-07-08T03:57:18;218.93;;;211.55;;
80578;SDS011;69939;52.402;6.608;2023-07-08T03:59:47;164.52;;;158.95;;
80578;SDS011;69939;52.402;6.608;2023-07-08T04:02:17;64.28;;;61.88;;
80578;SDS011;69939;52.402;6.608;2023-07-08T04:04:46;21.90;;;20.98;;
80578;SDS011;69939;52.402;6.608;2023-07-08T04:07:16;11.90;;;11.20;;
80578;SDS011;69939;52.402;6.608;2023-07-08T04:09:48;27.38;;;26.17;;
80578;SDS011;69939;52.402;6.608;2023-07-08T04:12:19;60.95;;;58.50;;
80578;SDS011;69939;52.402;6.608;2023-07-08T04:14:51;98.20;;;94.80;;
80578;SDS011;69939;52.402;6.608;2023-07-08T04:17:22;97.60;;;94.18;;
80578;SDS011;69939;52.402;6.608;2023-07-08T04:19:53;88.20;;;85.00;;
80578;SDS011;69939;52.402;6.608;2023-07-08T04:22:22;65.72;;;63.22;;
80578;SDS011;69939;52.402;6.608;2023-07-08T04:24:57;66.05;;;63.55;;
80578;SDS011;69939;52.402;6.608;2023-07-08T04:27:31;55.88;;;53.85;;
80578;SDS011;69939;52.402;6.608;2023-07-08T04:30:03;66.40;;;63.97;;
80578;SDS011;69939;52.402;6.608;2023-07-08T04:32:34;71.65;;;69.15;;
80578;SDS011;69939;52.402;6.608;2023-07-08T04:37:33;45.97;;;44.20;;
80578;SDS011;69939;52.402;6.608;2023-07-08T04:40:07;54.05;;;52.00;;
80578;SDS011;69939;52.402;6.608;2023-07-08T04:42:47;50.55;;;48.63;;
80578;SDS011;69939;52.402;6.608;2023-07-08T04:45:16;50.88;;;48.88;;
80578;SDS011;69939;52.402;6.608;2023-07-08T04:47:47;63.20;;;60.80;;
80578;SDS011;69939;52.402;6.608;2023-07-08T04:50:17;68.05;;;65.65;;
80578;SDS011;69939;52.402;6.608;2023-07-08T04:52:48;58.13;;;55.97;;
80578;SDS011;69939;52.402;6.608;2023-07-08T04:55:26;47.47;;;45.58;;
80578;SDS011;69939;52.402;6.608;2023-07-08T04:57:57;64.65;;;62.13;;
80578;SDS011;69939;52.402;6.608;2023-07-08T05:00:27;78.85;;;76.03;;
80578;SDS011;69939;52.402;6.608;2023-07-08T05:02:56;77.85;;;75.25;;
80578;SDS011;69939;52.402;6.608;2023-07-08T05:05:26;78.95;;;76.13;;
80578;SDS011;69939;52.402;6.608;2023-07-08T05:07:56;91.53;;;88.43;;
80578;SDS011;69939;52.402;6.608;2023-07-08T05:10:28;81.97;;;78.97;;
80578;SDS011;69939;52.402;6.608;2023-07-08T05:12:57;99.88;;;96.50;;
80578;SDS011;69939;52.402;6.608;2023-07-08T05:15:29;92.05;;;88.88;;
80578;SDS011;69939;52.402;6.608;2023-07-08T05:17:59;96.15;;;92.85;;
80578;SDS011;69939;52.402;6.608;2023-07-08T05:20:31;79.15;;;76.30;;
80578;SDS011;69939;52.402;6.608;2023-07-08T05:23:02;94.63;;;91.15;;
80578;SDS011;69939;52.402;6.608;2023-07-08T05:25:34;101.55;;;98.00;;
80578;SDS011;69939;52.402;6.608;2023-07-08T05:28:04;85.53;;;82.53;;
80578;SDS011;69939;52.402;6.608;2023-07-08T05:30:36;98.45;;;94.97;;
80578;SDS011;69939;52.402;6.608;2023-07-08T05:33:11;103.13;;;99.55;;
80578;SDS011;69939;52.402;6.608;2023-07-08T05:35:40;111.70;;;107.50;;
80578;SDS011;69939;52.402;6.608;2023-07-08T05:38:10;106.30;;;102.68;;
80578;SDS011;69939;52.402;6.608;2023-07-08T05:40:42;96.53;;;93.18;;
80578;SDS011;69939;52.402;6.608;2023-07-08T05:43:18;88.00;;;84.93;;
80578;SDS011;69939;52.402;6.608;2023-07-08T05:45:49;109.38;;;105.38;;
80578;SDS011;69939;52.402;6.608;2023-07-08T05:48:31;98.47;;;95.05;;
80578;SDS011;69939;52.402;6.608;2023-07-08T05:51:00;70.90;;;68.45;;
80578;SDS011;69939;52.402;6.608;2023-07-08T05:53:31;81.07;;;78.38;;
80578;SDS011;69939;52.402;6.608;2023-07-08T05:56:03;52.85;;;50.70;;
80578;SDS011;69939;52.402;6.608;2023-07-08T05:58:32;35.95;;;34.65;;
80578;SDS011;69939;52.402;6.608;2023-07-08T06:01:02;25.88;;;24.67;;
80578;SDS011;69939;52.402;6.608;2023-07-08T06:03:32;18.67;;;17.77;;
80578;SDS011;69939;52.402;6.608;2023-07-08T06:06:01;13.27;;;12.60;;
80578;SDS011;69939;52.402;6.608;2023-07-08T06:08:31;14.95;;;14.05;;
80578;SDS011;69939;52.402;6.608;2023-07-08T06:11:03;12.55;;;11.90;;
80578;SDS011;69939;52.402;6.608;2023-07-08T06:13:32;10.13;;;9.35;;
80578;SDS011;69939;52.402;6.608;2023-07-08T06:16:01;9.23;;;8.63;;
80578;SDS011;69939;52.402;6.608;2023-07-08T06:18:31;9.30;;;8.75;;
80578;SDS011;69939;52.402;6.608;2023-07-08T06:21:00;9.43;;;8.93;;
80578;SDS011;69939;52.402;6.608;2023-07-08T06:23:29;17.20;;;16.30;;
80578;SDS011;69939;52.402;6.608;2023-07-08T06:25:58;11.80;;;11.00;;
80578;SDS011;69939;52.402;6.608;2023-07-08T06:28:30;10.45;;;9.85;;
80578;SDS011;69939;52.402;6.608;2023-07-08T06:31:00;10.63;;;9.85;;
80578;SDS011;69939;52.402;6.608;2023-07-08T06:33:29;12.77;;;12.18;;
80578;SDS011;69939;52.402;6.608;2023-07-08T06:35:58;11.35;;;10.50;;
80578;SDS011;69939;52.402;6.608;2023-07-08T06:38:27;12.25;;;11.40;;
80578;SDS011;69939;52.402;6.608;2023-07-08T06:40:58;14.90;;;14.10;;
80578;SDS011;69939;52.402;6.608;2023-07-08T06:43:29;14.82;;;14.02;;
80578;SDS011;69939;52.402;6.608;2023-07-08T06:45:59;17.23;;;16.42;;
80578;SDS011;69939;52.402;6.608;2023-07-08T06:48:28;15.27;;;14.48;;
80578;SDS011;69939;52.402;6.608;2023-07-08T06:50:57;16.00;;;15.20;;
80578;SDS011;69939;52.402;6.608;2023-07-08T06:53:26;16.38;;;15.60;;
80578;SDS011;69939;52.402;6.608;2023-07-08T06:55:55;16.27;;;15.35;;
80578;SDS011;69939;52.402;6.608;2023-07-08T06:58:24;16.60;;;15.90;;
80578;SDS011;69939;52.402;6.608;2023-07-08T07:00:58;17.42;;;16.67;;
80578;SDS011;69939;52.402;6.608;2023-07-08T07:03:28;16.08;;;15.27;;
80578;SDS011;69939;52.402;6.608;2023-07-08T07:05:57;22.33;;;21.33;;
80578;SDS011;69939;52.402;6.608;2023-07-08T07:08:26;15.68;;;14.57;;
80578;SDS011;69939;52.402;6.608;2023-07-08T07:10:55;18.23;;;17.33;;
80578;SDS011;69939;52.402;6.608;2023-07-08T07:13:24;16.58;;;15.48;;
80578;SDS011;69939;52.402;6.608;2023-07-08T07:15:53;16.30;;;15.50;;
80578;SDS011;69939;52.402;6.608;2023-07-08T07:18:25;24.75;;;23.52;;
80578;SDS011;69939;52.402;6.608;2023-07-08T07:20:54;17.80;;;17.00;;
80578;SDS011;69939;52.402;6.608;2023-07-08T07:23:23;17.38;;;16.58;;
80578;SDS011;69939;52.402;6.608;2023-07-08T07:25:53;17.02;;;16.17;;
80578;SDS011;69939;52.402;6.608;2023-07-08T07:28:22;19.15;;;18.15;;
80578;SDS011;69939;52.402;6.608;2023-07-08T07:30:55;15.63;;;14.80;;
80578;SDS011;69939;52.402;6.608;2023-07-08T07:33:30;16.40;;;15.60;;
80578;SDS011;69939;52.402;6.608;2023-07-08T07:35:59;14.70;;;14.00;;
80578;SDS011;69939;52.402;6.608;2023-07-08T07:38:29;14.02;;;13.32;;
80578;SDS011;69939;52.402;6.608;2023-07-08T07:41:01;15.73;;;15.00;;
80578;SDS011;69939;52.402;6.608;2023-07-08T07:43:32;35.13;;;33.47;;
80578;SDS011;69939;52.402;6.608;2023-07-08T07:46:01;17.65;;;16.85;;
80578;SDS011;69939;52.402;6.608;2023-07-08T07:48:33;12.95;;;12.05;;
80578;SDS011;69939;52.402;6.608;2023-07-08T07:51:03;13.57;;;12.88;;
80578;SDS011;69939;52.402;6.608;2023-07-08T07:53:35;15.43;;;14.50;;
80578;SDS011;69939;52.402;6.608;2023-07-08T07:56:05;13.10;;;12.45;;
80578;SDS011;69939;52.402;6.608;2023-07-08T07:58:34;12.15;;;11.52;;
80578;SDS011;69939;52.402;6.608;2023-07-08T08:01:04;11.35;;;10.55;;
80578;SDS011;69939;52.402;6.608;2023-07-08T08:03:36;12.52;;;11.82;;
80578;SDS011;69939;52.402;6.608;2023-07-08T08:06:05;10.90;;;10.30;;
80578;SDS011;69939;52.402;6.608;2023-07-08T08:08:35;12.48;;;11.65;;
80578;SDS011;69939;52.402;6.608;2023-07-08T08:11:04;13.25;;;12.45;;
80578;SDS011;69939;52.402;6.608;2023-07-08T08:13:33;11.98;;;11.18;;
80578;SDS011;69939;52.402;6.608;2023-07-08T08:16:02;14.50;;;13.48;;
80578;SDS011;69939;52.402;6.608;2023-07-08T08:18:32;12.38;;;11.77;;
80578;SDS011;69939;52.402;6.608;2023-07-08T08:21:04;13.05;;;12.30;;
80578;SDS011;69939;52.402;6.608;2023-07-08T08:23:33;12.60;;;11.98;;
80578;SDS011;69939;52.402;6.608;2023-07-08T08:26:02;11.32;;;10.73;;
80578;SDS011;69939;52.402;6.608;2023-07-08T08:28:31;11.93;;;11.23;;
80578;SDS011;69939;52.402;6.608;2023-07-08T08:31:01;10.82;;;10.13;;
80578;SDS011;69939;52.402;6.608;2023-07-08T08:33:30;10.57;;;9.90;;
80578;SDS011;69939;52.402;6.608;2023-07-08T08:36:02;11.93;;;11.32;;
80578;SDS011;69939;52.402;6.608;2023-07-08T08:38:33;9.98;;;9.43;;
80578;SDS011;69939;52.402;6.608;2023-07-08T08:41:03;11.60;;;10.93;;
80578;SDS011;69939;52.402;6.608;2023-07-08T08:43:38;10.07;;;9.50;;
80578;SDS011;69939;52.402;6.608;2023-07-08T08:46:11;9.80;;;9.27;;
80578;SDS011;69939;52.402;6.608;2023-07-08T08:48:53;11.00;;;10.43;;
80578;SDS011;69939;52.402;6.608;2023-07-08T08:51:33;9.07;;;8.52;;
80578;SDS011;69939;52.402;6.608;2023-07-08T08:54:03;10.63;;;10.00;;
80578;SDS011;69939;52.402;6.608;2023-07-08T08:56:34;11.02;;;10.32;;
80578;SDS011;69939;52.402;6.608;2023-07-08T08:59:14;11.68;;;11.07;;
80578;SDS011;69939;52.402;6.608;2023-07-08T09:01:56;11.10;;;10.48;;
80578;SDS011;69939;52.402;6.608;2023-07-08T09:04:28;10.20;;;9.63;;
80578;SDS011;69939;52.402;6.608;2023-07-08T09:07:07;9.98;;;9.23;;
80578;SDS011;69939;52.402;6.608;2023-07-08T09:09:51;10.32;;;9.80;;
80578;SDS011;69939;52.402;6.608;2023-07-08T09:12:33;11.70;;;10.88;;
80578;SDS011;69939;52.402;6.608;2023-07-08T09:15:09;17.70;;;16.77;;
80578;SDS011;69939;52.402;6.608;2023-07-08T09:17:42;10.25;;;9.65;;
80578;SDS011;69939;52.402;6.608;2023-07-08T09:20:17;10.93;;;10.23;;
80578;SDS011;69939;52.402;6.608;2023-07-08T09:22:57;16.25;;;15.55;;
80578;SDS011;69939;52.402;6.608;2023-07-08T09:25:42;11.07;;;10.48;;
80578;SDS011;69939;52.402;6.608;2023-07-08T09:28:17;10.93;;;10.35;;
80578;SDS011;69939;52.402;6.608;2023-07-08T09:30:47;11.57;;;10.77;;
80578;SDS011;69939;52.402;6.608;2023-07-08T09:35:52;10.25;;;9.50;;
80578;SDS011;69939;52.402;6.608;2023-07-08T09:38:24;8.57;;;7.97;;
80578;SDS011;69939;52.402;6.608;2023-07-08T09:40:53;8.38;;;7.80;;
80578;SDS011;69939;52.402;6.608;2023-07-08T09:43:24;9.88;;;9.15;;
80578;SDS011;69939;52.402;6.608;2023-07-08T09:45:57;8.63;;;8.07;;
80578;SDS011;69939;52.402;6.608;2023-07-08T09:48:28;10.55;;;9.75;;
80578;SDS011;69939;52.402;6.608;2023-07-08T09:51:03;10.68;;;9.98;;
80578;SDS011;69939;52.402;6.608;2023-07-08T09:53:36;8.50;;;7.80;;
80578;SDS011;69939;52.402;6.608;2023-07-08T09:56:06;11.60;;;9.80;;
80578;SDS011;69939;52.402;6.608;2023-07-08T09:58:40;9.38;;;8.70;;
80578;SDS011;69939;52.402;6.608;2023-07-08T10:01:18;9.82;;;9.25;;
80578;SDS011;69939;52.402;6.608;2023-07-08T10:03:57;11.18;;;10.57;;
80578;SDS011;69939;52.402;6.608;2023-07-08T10:09:03;8.70;;;8.10;;
80578;SDS011;69939;52.402;6.608;2023-07-08T10:11:41;9.20;;;8.50;;
80578;SDS011;69939;52.402;6.608;2023-07-08T10:14:19;7.60;;;6.90;;
80578;SDS011;69939;52.402;6.608;2023-07-08T10:16:55;8.40;;;7.70;;
80578;SDS011;69939;52.402;6.608;2023-07-08T10:19:25;7.72;;;7.03;;
80578;SDS011;69939;52.402;6.608;2023-07-08T10:21:55;8.65;;;7.85;;
80578;SDS011;69939;52.402;6.608;2023-07-08T10:24:55;7.28;;;6.78;;
80578;SDS011;69939;52.402;6.608;2023-07-08T10:27:40;6.68;;;6.10;;
80578;SDS011;69939;52.402;6.608;2023-07-08T10:30:23;7.05;;;6.50;;
80578;SDS011;69939;52.402;6.608;2023-07-08T10:33:05;7.40;;;6.38;;
80578;SDS011;69939;52.402;6.608;2023-07-08T10:36:07;7.18;;;6.68;;
80578;SDS011;69939;52.402;6.608;2023-07-08T10:38:54;7.22;;;6.72;;
80578;SDS011;69939;52.402;6.608;2023-07-08T10:41:53;8.03;;;7.53;;
80578;SDS011;69939;52.402;6.608;2023-07-08T10:44:59;9.82;;;9.10;;
80578;SDS011;69939;52.402;6.608;2023-07-08T10:48:07;8.40;;;7.88;;
80578;SDS011;69939;52.402;6.608;2023-07-08T10:51:41;7.40;;;6.80;;
80578;SDS011;69939;52.402;6.608;2023-07-08T11:05:37;7.72;;;7.03;;
80578;SDS011;69939;52.402;6.608;2023-07-08T11:09:14;8.05;;;7.47;;
80578;SDS011;69939;52.402;6.608;2023-07-08T11:15:59;9.00;;;8.30;;
80578;SDS011;69939;52.402;6.608;2023-07-08T11:19:19;7.60;;;6.40;;
80578;SDS011;69939;52.402;6.608;2023-07-08T11:21:54;6.78;;;6.18;;
80578;SDS011;69939;52.402;6.608;2023-07-08T11:24:32;7.93;;;7.22;;
80578;SDS011;69939;52.402;6.608;2023-07-08T11:27:08;7.68;;;6.82;;
80578;SDS011;69939;52.402;6.608;2023-07-08T11:29:48;7.15;;;6.65;;
80578;SDS011;69939;52.402;6.608;2023-07-08T11:32:24;8.20;;;7.60;;
80578;SDS011;69939;52.402;6.608;2023-07-08T11:35:02;8.00;;;7.40;;
80578;SDS011;69939;52.402;6.608;2023-07-08T11:37:44;6.85;;;6.22;;
80578;SDS011;69939;52.402;6.608;2023-07-08T11:40:18;8.32;;;7.72;;
80578;SDS011;69939;52.402;6.608;2023-07-08T11:42:51;7.53;;;6.82;;
80578;SDS011;69939;52.402;6.608;2023-07-08T11:45:30;9.20;;;8.60;;
80578;SDS011;69939;52.402;6.608;2023-07-08T11:48:05;7.03;;;6.35;;
80578;SDS011;69939;52.402;6.608;2023-07-08T11:50:43;7.22;;;6.63;;
80578;SDS011;69939;52.402;6.608;2023-07-08T11:53:31;9.02;;;6.20;;
80578;SDS011;69939;52.402;6.608;2023-07-08T11:56:19;7.07;;;6.25;;
80578;SDS011;69939;52.402;6.608;2023-07-08T12:01:48;7.20;;;6.57;;
80578;SDS011;69939;52.402;6.608;2023-07-08T12:04:29;7.93;;;6.65;;
80578;SDS011;69939;52.402;6.608;2023-07-08T12:07:16;8.38;;;7.50;;
80578;SDS011;69939;52.402;6.608;2023-07-08T12:09:49;7.68;;;7.07;;
80578;SDS011;69939;52.402;6.608;2023-07-08T12:12:30;8.38;;;7.78;;
80578;SDS011;69939;52.402;6.608;2023-07-08T12:15:09;6.05;;;5.55;;
80578;SDS011;69939;52.402;6.608;2023-07-08T12:17:45;6.75;;;6.18;;
80578;SDS011;69939;52.402;6.608;2023-07-08T12:20:17;14.35;;;13.45;;
80578;SDS011;69939;52.402;6.608;2023-07-08T12:22:54;7.47;;;6.75;;
80578;SDS011;69939;52.402;6.608;2023-07-08T12:25:26;7.93;;;6.93;;
80578;SDS011;69939;52.402;6.608;2023-07-08T12:28:02;8.85;;;8.10;;
80578;SDS011;69939;52.402;6.608;2023-07-08T12:30:32;7.65;;;6.55;;
80578;SDS011;69939;52.402;6.608;2023-07-08T12:33:02;7.68;;;6.88;;
80578;SDS011;69939;52.402;6.608;2023-07-08T12:35:33;8.13;;;7.43;;
80578;SDS011;69939;52.402;6.608;2023-07-08T12:38:09;8.25;;;7.13;;
80578;SDS011;69939;52.402;6.608;2023-07-08T12:40:50;7.50;;;6.80;;
80578;SDS011;69939;52.402;6.608;2023-07-08T12:43:19;8.18;;;7.47;;
80578;SDS011;69939;52.402;6.608;2023-07-08T12:45:49;10.45;;;9.63;;
80578;SDS011;69939;52.402;6.608;2023-07-08T12:48:18;7.57;;;6.97;;
80578;SDS011;69939;52.402;6.608;2023-07-08T12:50:47;7.43;;;6.83;;
80578;SDS011;69939;52.402;6.608;2023-07-08T12:53:19;6.90;;;6.38;;
80578;SDS011;69939;52.402;6.608;2023-07-08T12:55:48;7.60;;;7.00;;
80578;SDS011;69939;52.402;6.608;2023-07-08T12:58:25;8.80;;;7.93;;
80578;SDS011;69939;52.402;6.608;2023-07-08T13:00:59;8.80;;;8.10;;
80578;SDS011;69939;52.402;6.608;2023-07-08T13:03:34;8.18;;;7.28;;
80578;SDS011;69939;52.402;6.608;2023-07-08T13:06:10;7.43;;;6.80;;
80578;SDS011;69939;52.402;6.608;2023-07-08T13:08:46;8.10;;;6.53;;
80578;SDS011;69939;52.402;6.608;2023-07-08T13:11:16;8.05;;;7.28;;
80578;SDS011;69939;52.402;6.608;2023-07-08T13:13:52;7.07;;;6.43;;
80578;SDS011;69939;52.402;6.608;2023-07-08T13:16:28;8.02;;;7.07;;
80578;SDS011;69939;52.402;6.608;2023-07-08T13:19:02;8.55;;;7.78;;
80578;SDS011;69939;52.402;6.608;2023-07-08T13:21:34;7.35;;;6.65;;
80578;SDS011;69939;52.402;6.608;2023-07-08T13:24:09;10.77;;;9.93;;
80578;SDS011;69939;52.402;6.608;2023-07-08T13:26:39;8.63;;;6.63;;
80578;SDS011;69939;52.402;6.608;2023-07-08T13:29:11;8.88;;;7.07;;
80578;SDS011;69939;52.402;6.608;2023-07-08T13:31:46;6.78;;;6.18;;
80578;SDS011;69939;52.402;6.608;2023-07-08T13:36:51;7.20;;;6.50;;
80578;SDS011;69939;52.402;6.608;2023-07-08T13:39:26;7.97;;;5.88;;
80578;SDS011;69939;52.402;6.608;2023-07-08T13:42:00;14.85;;;13.88;;
80578;SDS011;69939;52.402;6.608;2023-07-08T13:44:30;8.30;;;7.50;;
80578;SDS011;69939;52.402;6.608;2023-07-08T13:46:59;7.05;;;6.35;;
80578;SDS011;69939;52.402;6.608;2023-07-08T13:49:38;7.95;;;7.25;;
80578;SDS011;69939;52.402;6.608;2023-07-08T13:52:15;7.95;;;6.85;;
80578;SDS011;69939;52.402;6.608;2023-07-08T13:54:51;7.00;;;6.43;;
80578;SDS011;69939;52.402;6.608;2023-07-08T13:57:28;7.15;;;6.40;;
80578;SDS011;69939;52.402;6.608;2023-07-08T14:00:02;7.65;;;6.95;;
80578;SDS011;69939;52.402;6.608;2023-07-08T14:02:35;7.70;;;6.93;;
80578;SDS011;69939;52.402;6.608;2023-07-08T14:05:11;8.68;;;7.97;;
80578;SDS011;69939;52.402;6.608;2023-07-08T14:07:45;7.72;;;7.05;;
80578;SDS011;69939;52.402;6.608;2023-07-08T14:10:17;7.25;;;6.55;;
80578;SDS011;69939;52.402;6.608;2023-07-08T14:12:46;8.98;;;7.38;;
80578;SDS011;69939;52.402;6.608;2023-07-08T14:15:15;7.45;;;6.85;;
80578;SDS011;69939;52.402;6.608;2023-07-08T14:17:44;7.32;;;6.70;;
80578;SDS011;69939;52.402;6.608;2023-07-08T14:20:16;8.05;;;7.28;;
80578;SDS011;69939;52.402;6.608;2023-07-08T14:22:46;7.85;;;7.13;;
80578;SDS011;69939;52.402;6.608;2023-07-08T14:25:20;9.02;;;8.27;;
80578;SDS011;69939;52.402;6.608;2023-07-08T14:27:49;8.80;;;7.20;;
80578;SDS011;69939;52.402;6.608;2023-07-08T14:30:21;8.43;;;7.75;;
80578;SDS011;69939;52.402;6.608;2023-07-08T14:32:50;8.10;;;7.30;;
80578;SDS011;69939;52.402;6.608;2023-07-08T14:35:23;8.38;;;7.65;;
80578;SDS011;69939;52.402;6.608;2023-07-08T14:37:56;7.68;;;6.97;;
80578;SDS011;69939;52.402;6.608;2023-07-08T14:40:29;8.38;;;7.68;;
80578;SDS011;69939;52.402;6.608;2023-07-08T14:43:03;8.27;;;7.53;;
80578;SDS011;69939;52.402;6.608;2023-07-08T14:45:39;8.10;;;7.40;;
80578;SDS011;69939;52.402;6.608;2023-07-08T14:48:12;8.95;;;8.05;;
80578;SDS011;69939;52.402;6.608;2023-07-08T14:50:42;8.90;;;8.20;;
80578;SDS011;69939;52.402;6.608;2023-07-08T14:53:12;9.38;;;8.63;;
80578;SDS011;69939;52.402;6.608;2023-07-08T14:55:46;9.18;;;8.27;;
80578;SDS011;69939;52.402;6.608;2023-07-08T14:58:20;9.60;;;8.70;;
80578;SDS011;69939;52.402;6.608;2023-07-08T15:00:53;8.38;;;7.68;;
80578;SDS011;69939;52.402;6.608;2023-07-08T15:03:26;8.52;;;7.82;;
80578;SDS011;69939;52.402;6.608;2023-07-08T15:05:55;8.02;;;6.97;;
80578;SDS011;69939;52.402;6.608;2023-07-08T15:08:24;8.90;;;8.10;;
80578;SDS011;69939;52.402;6.608;2023-07-08T15:10:58;9.57;;;8.68;;
80578;SDS011;69939;52.402;6.608;2023-07-08T15:13:31;7.35;;;6.75;;
80578;SDS011;69939;52.402;6.608;2023-07-08T15:16:04;10.70;;;9.90;;
80578;SDS011;69939;52.402;6.608;2023-07-08T15:18:34;8.15;;;7.53;;
80578;SDS011;69939;52.402;6.608;2023-07-08T15:21:03;7.63;;;6.93;;
80578;SDS011;69939;52.402;6.608;2023-07-08T15:23:32;8.20;;;7.40;;
80578;SDS011;69939;52.402;6.608;2023-07-08T15:26:03;8.07;;;7.22;;
80578;SDS011;69939;52.402;6.608;2023-07-08T15:28:38;7.97;;;7.05;;
80578;SDS011;69939;52.402;6.608;2023-07-08T15:31:13;7.13;;;6.53;;
80578;SDS011;69939;52.402;6.608;2023-07-08T15:33:43;7.60;;;7.00;;
80578;SDS011;69939;52.402;6.608;2023-07-08T15:36:13;7.60;;;6.88;;
80578;SDS011;69939;52.402;6.608;2023-07-08T15:38:42;7.45;;;6.30;;
80578;SDS011;69939;52.402;6.608;2023-07-08T15:41:16;7.88;;;7.28;;
80578;SDS011;69939;52.402;6.608;2023-07-08T15:43:52;7.22;;;6.57;;
80578;SDS011;69939;52.402;6.608;2023-07-08T15:46:24;7.18;;;6.13;;